createdAt,value
2017-12-25T00:01:22.673Z,4.53
2017-12-25T00:03:50.160Z,4.23
2017-12-25T00:06:17.573Z,3.97
2017-12-25T00:08:45.784Z,3.87
2017-12-25T00:11:13.223Z,3.67
2017-12-25T00:13:40.658Z,3.43
2017-12-25T00:16:08.858Z,3.80
2017-12-25T00:18:36.294Z,3.57
2017-12-25T00:21:04.495Z,3.83
2017-12-25T00:23:31.934Z,3.93
2017-12-25T00:25:59.371Z,3.63
2017-12-25T00:28:27.574Z,3.73
2017-12-25T00:30:55.012Z,3.40
2017-12-25T00:33:23.215Z,3.83
2017-12-25T00:35:50.653Z,3.77
2017-12-25T00:38:18.843Z,4.00
2017-12-25T00:40:46.278Z,3.83
2017-12-25T00:43:13.717Z,4.67
2017-12-25T00:45:41.918Z,3.87
2017-12-25T00:48:09.351Z,3.70
2017-12-25T00:50:37.562Z,4.07
2017-12-25T00:53:04.994Z,4.37
2017-12-25T00:55:32.434Z,4.40
2017-12-25T00:58:00.630Z,4.30
2017-12-25T01:00:28.067Z,4.00
2017-12-25T01:02:56.274Z,4.47
2017-12-25T01:05:23.719Z,4.90
2017-12-25T01:07:51.152Z,4.43
2017-12-25T01:10:19.350Z,3.97
2017-12-25T01:12:46.778Z,3.90
2017-12-25T01:15:15.036Z,4.47
2017-12-25T01:17:42.415Z,3.53
2017-12-25T01:20:10.626Z,4.10
2017-12-25T01:22:38.077Z,4.10
2017-12-25T01:25:05.509Z,4.20
2017-12-25T01:27:33.710Z,3.83
2017-12-25T01:30:01.141Z,3.97
2017-12-25T01:32:28.575Z,4.07
2017-12-25T01:34:56.012Z,4.33
2017-12-25T01:37:23.438Z,4.93
2017-12-25T01:39:50.878Z,4.20
2017-12-25T01:42:18.310Z,4.63
2017-12-25T01:44:46.534Z,3.97
2017-12-25T01:47:13.980Z,3.50
2017-12-25T01:49:41.415Z,4.40
2017-12-25T01:52:08.856Z,3.90
2017-12-25T01:54:37.968Z,3.70
2017-12-25T02:10:34.366Z,4.23
2017-12-25T02:13:02.559Z,3.73
2017-12-25T02:15:29.995Z,4.40
2017-12-25T02:17:58.186Z,4.30
2017-12-25T02:20:25.627Z,4.80
2017-12-25T02:22:53.832Z,4.60
2017-12-25T02:25:21.262Z,4.43
2017-12-25T02:27:49.468Z,4.40
2017-12-25T02:30:16.911Z,4.33
2017-12-25T02:32:44.335Z,4.33
2017-12-25T02:35:11.770Z,3.60
2017-12-25T02:37:39.208Z,4.83
2017-12-25T02:40:06.643Z,3.87
2017-12-25T02:42:34.074Z,4.13
2017-12-25T02:45:02.274Z,3.90
2017-12-25T02:47:29.711Z,3.90
2017-12-25T02:49:57.902Z,4.13
2017-12-25T02:52:25.340Z,4.50
2017-12-25T02:54:53.542Z,4.17
2017-12-25T02:57:20.974Z,4.77
2017-12-25T02:59:48.403Z,5.00
2017-12-25T03:02:15.838Z,4.87
2017-12-25T03:04:43.268Z,4.23
2017-12-25T03:07:10.702Z,4.30
2017-12-25T03:09:38.143Z,5.17
2017-12-25T03:12:06.339Z,4.20
2017-12-25T03:14:33.793Z,4.93
2017-12-25T03:17:01.227Z,4.30
2017-12-25T03:19:29.418Z,3.67
2017-12-25T03:21:56.857Z,4.53
2017-12-25T03:24:25.051Z,4.20
2017-12-25T03:26:52.486Z,4.13
2017-12-25T03:29:20.687Z,4.83
2017-12-25T03:31:48.119Z,5.30
2017-12-25T03:34:16.323Z,5.30
2017-12-25T03:36:43.754Z,5.73
2017-12-25T03:39:11.955Z,4.80
2017-12-25T03:41:39.382Z,6.83
2017-12-25T03:44:07.587Z,5.90
2017-12-25T03:46:35.016Z,6.00
2017-12-25T03:49:03.223Z,6.03
2017-12-25T03:51:30.650Z,5.63
2017-12-25T03:53:58.129Z,6.70
2017-12-25T03:56:25.550Z,6.87
2017-12-25T03:58:53.751Z,6.83
2017-12-25T04:01:21.178Z,7.70
2017-12-25T04:03:49.388Z,7.43
2017-12-25T04:06:16.814Z,7.80
2017-12-25T04:08:45.018Z,7.57
2017-12-25T04:11:12.488Z,8.57
2017-12-25T04:13:39.919Z,6.83
2017-12-25T04:16:07.350Z,6.00
2017-12-25T04:18:35.550Z,7.03
2017-12-25T04:21:02.983Z,7.00
2017-12-25T04:23:31.186Z,8.77
2017-12-25T04:25:58.618Z,6.83
2017-12-25T04:28:26.825Z,8.17
2017-12-25T04:30:54.254Z,6.63
2017-12-25T04:33:22.459Z,6.90
2017-12-25T04:35:49.886Z,8.20
2017-12-25T04:38:17.327Z,6.63
2017-12-25T04:40:45.518Z,7.70
2017-12-25T04:43:12.974Z,7.20
2017-12-25T04:45:40.406Z,7.30
2017-12-25T04:48:07.843Z,8.43
2017-12-25T04:50:35.278Z,6.87
2017-12-25T04:53:02.706Z,6.80
2017-12-25T04:55:30.148Z,8.83
2017-12-25T04:57:58.345Z,7.27
2017-12-25T05:00:25.774Z,7.40
2017-12-25T05:02:53.978Z,8.10
2017-12-25T05:05:21.416Z,7.00
2017-12-25T05:07:48.847Z,8.20
2017-12-25T05:10:16.283Z,7.50
2017-12-25T05:12:43.718Z,8.27
2017-12-25T05:15:11.158Z,7.53
2017-12-25T05:17:38.586Z,8.43
2017-12-25T05:20:06.791Z,7.80
2017-12-25T05:22:34.221Z,8.30
2017-12-25T05:25:01.663Z,8.10
2017-12-25T05:27:29.859Z,6.23
2017-12-25T05:29:57.290Z,7.07
2017-12-25T05:32:25.495Z,6.97
2017-12-25T05:34:52.935Z,7.70
2017-12-25T05:37:21.126Z,7.30
2017-12-25T05:39:48.562Z,8.17
2017-12-25T05:42:16.763Z,7.37
2017-12-25T05:44:44.207Z,6.50
2017-12-25T05:47:11.630Z,7.53
2017-12-25T05:49:39.136Z,8.83
2017-12-25T05:52:06.547Z,8.30
2017-12-25T05:54:34.755Z,7.87
2017-12-25T05:57:02.188Z,7.80
2017-12-25T05:59:30.382Z,7.93
2017-12-25T06:01:57.844Z,8.03
2017-12-25T06:04:25.258Z,8.77
2017-12-25T06:06:52.695Z,9.10
2017-12-25T06:09:20.893Z,7.57
2017-12-25T06:11:48.332Z,7.00
2017-12-25T06:14:15.766Z,7.97
2017-12-25T06:16:43.208Z,8.10
2017-12-25T06:19:10.636Z,7.40
2017-12-25T06:21:38.834Z,9.57
2017-12-25T06:24:06.269Z,7.27
2017-12-25T06:26:34.472Z,6.67
2017-12-25T06:29:01.899Z,7.50
2017-12-25T06:31:29.338Z,6.83
2017-12-25T06:33:57.534Z,6.43
2017-12-25T06:36:24.975Z,6.70
2017-12-25T06:38:53.180Z,8.27
2017-12-25T06:41:20.626Z,7.93
2017-12-25T06:43:48.054Z,7.20
2017-12-25T06:46:16.268Z,6.87
2017-12-25T06:48:43.698Z,7.83
2017-12-25T06:51:11.899Z,10.17
2017-12-25T06:53:39.335Z,9.10
2017-12-25T06:56:06.766Z,7.93
2017-12-25T06:58:34.966Z,7.60
2017-12-25T07:01:02.404Z,7.97
2017-12-25T07:03:30.606Z,7.77
2017-12-25T07:05:58.044Z,8.10
2017-12-25T07:08:26.244Z,7.63
2017-12-25T07:10:53.685Z,8.97
2017-12-25T07:13:21.111Z,8.20
2017-12-25T07:15:48.566Z,7.80
2017-12-25T07:18:15.990Z,7.83
2017-12-25T07:20:43.424Z,8.47
2017-12-25T07:23:10.863Z,7.63
2017-12-25T07:25:38.289Z,8.63
2017-12-25T07:28:05.731Z,8.33
2017-12-25T07:30:33.165Z,9.10
2017-12-25T07:33:00.604Z,9.60
2017-12-25T07:35:28.035Z,8.80
2017-12-25T07:37:56.237Z,8.30
2017-12-25T07:40:23.671Z,8.83
2017-12-25T07:42:51.106Z,8.97
2017-12-25T07:45:19.302Z,9.73
2017-12-25T07:47:46.740Z,7.57
2017-12-25T07:50:14.940Z,9.17
2017-12-25T07:52:42.378Z,8.80
2017-12-25T07:55:10.576Z,9.20
2017-12-25T07:57:38.014Z,8.67
2017-12-25T08:00:05.442Z,9.40
2017-12-25T08:02:32.880Z,8.30
2017-12-25T08:05:00.306Z,9.00
2017-12-25T08:07:27.742Z,9.00
2017-12-25T08:09:55.171Z,8.77
2017-12-25T08:12:22.602Z,9.60
2017-12-25T08:14:50.030Z,9.20
2017-12-25T08:17:17.466Z,8.60
2017-12-25T08:19:44.910Z,10.10
2017-12-25T08:22:13.116Z,10.00
2017-12-25T08:24:40.542Z,9.20
2017-12-25T08:27:08.758Z,9.57
2017-12-25T08:29:36.202Z,8.87
2017-12-25T08:32:03.634Z,10.23
2017-12-25T08:34:31.841Z,11.23
2017-12-25T08:36:59.270Z,19.87
2017-12-25T08:39:26.710Z,11.93
2017-12-25T08:41:54.911Z,10.00
2017-12-25T08:44:22.350Z,12.87
2017-12-25T08:46:50.550Z,11.73
2017-12-25T08:49:17.991Z,11.00
2017-12-25T08:51:45.427Z,13.70
2017-12-25T08:54:12.876Z,14.40
2017-12-25T08:56:40.308Z,13.37
2017-12-25T08:59:08.912Z,12.40
2017-12-25T09:01:36.339Z,9.47
2017-12-25T09:04:03.779Z,9.90
2017-12-25T09:06:31.226Z,9.87
2017-12-25T09:08:58.666Z,10.77
2017-12-25T09:11:26.098Z,9.60
2017-12-25T09:13:54.313Z,8.40
2017-12-25T09:16:21.739Z,8.10
2017-12-25T09:18:49.943Z,8.33
2017-12-25T09:21:17.379Z,9.53
2017-12-25T09:23:44.810Z,9.07
2017-12-25T09:26:13.006Z,9.00
2017-12-25T09:28:40.447Z,9.90
2017-12-25T09:31:08.648Z,8.90
2017-12-25T09:33:36.743Z,8.10
2017-12-25T09:36:04.179Z,11.77
2017-12-25T09:38:31.618Z,10.97
2017-12-25T09:40:59.055Z,8.60
2017-12-25T09:43:26.483Z,9.33
2017-12-25T09:45:53.922Z,10.83
2017-12-25T09:48:21.359Z,10.77
2017-12-25T09:50:48.798Z,7.97
2017-12-25T09:53:16.255Z,11.60
2017-12-25T09:55:44.454Z,9.73
2017-12-25T09:58:11.893Z,9.03
2017-12-25T10:00:39.327Z,8.93
2017-12-25T10:03:07.522Z,9.03
2017-12-25T10:05:34.967Z,8.43
2017-12-25T10:08:03.155Z,8.53
2017-12-25T10:10:30.595Z,8.03
2017-12-25T10:12:58.786Z,9.00
2017-12-25T10:15:26.227Z,7.60
2017-12-25T10:17:54.418Z,7.53
2017-12-25T10:20:21.859Z,7.43
2017-12-25T10:22:50.059Z,7.47
2017-12-25T10:25:17.486Z,8.27
2017-12-25T10:27:45.686Z,7.17
2017-12-25T10:30:13.120Z,7.63
2017-12-25T10:32:41.320Z,7.37
2017-12-25T10:35:08.754Z,7.03
2017-12-25T10:37:36.187Z,7.50
2017-12-25T10:40:03.690Z,7.70
2017-12-25T10:42:31.107Z,8.50
2017-12-25T10:44:59.302Z,8.40
2017-12-25T10:47:26.734Z,9.13
2017-12-25T10:49:54.938Z,8.40
2017-12-25T10:52:22.379Z,8.37
2017-12-25T10:54:50.583Z,8.67
2017-12-25T10:57:18.008Z,8.03
2017-12-25T10:59:46.202Z,8.00
2017-12-25T11:02:13.638Z,8.60
2017-12-25T11:04:41.835Z,20.67
2017-12-25T11:07:09.278Z,11.03
2017-12-25T11:09:36.714Z,16.13
2017-12-25T11:12:04.919Z,9.20
2017-12-25T11:14:32.351Z,9.43
2017-12-25T11:17:00.556Z,8.77
2017-12-25T11:19:27.982Z,9.50
2017-12-25T11:21:56.185Z,6.97
2017-12-25T11:24:23.622Z,15.40
2017-12-25T11:26:51.058Z,9.63
2017-12-25T11:29:19.250Z,8.90
2017-12-25T11:31:46.691Z,9.33
2017-12-25T11:34:14.892Z,7.73
2017-12-25T11:36:42.320Z,8.00
2017-12-25T11:39:10.514Z,8.27
2017-12-25T11:41:37.955Z,8.97
2017-12-25T11:44:06.265Z,9.30
2017-12-25T11:46:33.678Z,8.40
2017-12-25T11:49:01.890Z,10.83
2017-12-25T11:51:29.327Z,9.30
2017-12-25T11:53:56.762Z,10.33
2017-12-25T11:56:24.198Z,8.30
2017-12-25T11:58:51.631Z,9.20
2017-12-25T12:01:19.070Z,10.40
2017-12-25T12:03:46.502Z,9.23
2017-12-25T12:06:14.707Z,9.60
2017-12-25T12:08:42.138Z,8.83
2017-12-25T12:11:09.567Z,9.07
2017-12-25T12:13:37.003Z,9.57
2017-12-25T12:16:04.432Z,9.00
2017-12-25T12:18:31.872Z,8.40
2017-12-25T12:20:59.307Z,11.30
2017-12-25T12:23:27.511Z,9.83
2017-12-25T12:25:54.973Z,8.10
2017-12-25T12:28:22.394Z,9.90
2017-12-25T12:30:50.594Z,9.17
2017-12-25T12:33:18.037Z,9.30
2017-12-25T12:35:45.460Z,9.80
2017-12-25T12:38:12.896Z,8.60
2017-12-25T12:40:40.333Z,8.27
2017-12-25T12:43:07.766Z,10.50
2017-12-25T12:45:35.205Z,9.03
2017-12-25T12:48:03.407Z,10.03
2017-12-25T12:50:30.838Z,9.80
2017-12-25T12:52:59.046Z,10.00
2017-12-25T12:55:26.478Z,8.83
2017-12-25T12:57:53.906Z,9.97
2017-12-25T13:00:21.388Z,9.10
2017-12-25T13:02:48.774Z,10.77
2017-12-25T13:05:16.206Z,8.67
2017-12-25T13:07:43.642Z,9.70
2017-12-25T13:10:11.846Z,9.70
2017-12-25T13:12:39.283Z,10.57
2017-12-25T13:15:06.735Z,10.27
2017-12-25T13:17:34.930Z,9.53
2017-12-25T13:20:02.367Z,9.30
2017-12-25T13:22:30.567Z,9.80
2017-12-25T13:24:58.003Z,9.63
2017-12-25T13:27:25.435Z,10.20
2017-12-25T13:29:52.870Z,10.33
2017-12-25T13:32:20.311Z,9.97
2017-12-25T13:34:47.747Z,9.30
2017-12-25T13:37:15.174Z,9.83
2017-12-25T13:39:43.386Z,10.40
2017-12-25T13:42:10.814Z,9.10
2017-12-25T13:44:38.246Z,9.60
2017-12-25T13:47:06.451Z,9.27
2017-12-25T13:49:33.898Z,9.47
2017-12-25T13:52:01.337Z,8.90
2017-12-25T13:54:29.534Z,9.80
2017-12-25T13:56:56.963Z,9.10
2017-12-25T13:59:25.171Z,9.80
2017-12-25T14:01:52.603Z,9.27
2017-12-25T14:04:20.809Z,8.80
2017-12-25T14:06:48.241Z,10.60
2017-12-25T14:09:16.439Z,10.00
2017-12-25T14:11:43.875Z,9.47
2017-12-25T14:14:11.354Z,10.77
2017-12-25T14:16:38.775Z,10.10
2017-12-25T14:19:06.978Z,10.20
2017-12-25T14:21:34.415Z,9.23
2017-12-25T14:24:02.614Z,9.67
2017-12-25T14:26:30.051Z,10.73
2017-12-25T14:28:57.487Z,10.03
2017-12-25T14:31:25.691Z,10.60
2017-12-25T14:33:53.126Z,10.43
2017-12-25T14:36:21.331Z,10.87
2017-12-25T14:38:48.768Z,10.70
2017-12-25T14:41:16.198Z,10.80
2017-12-25T14:43:44.409Z,11.63
2017-12-25T14:46:11.838Z,11.30
2017-12-25T14:48:40.038Z,11.10
2017-12-25T14:51:07.478Z,11.90
2017-12-25T14:53:35.674Z,9.60
2017-12-25T14:56:03.112Z,10.90
2017-12-25T14:58:30.539Z,10.37
2017-12-25T15:00:57.982Z,10.40
2017-12-25T15:03:25.425Z,11.00
2017-12-25T15:05:52.855Z,10.33
2017-12-25T15:08:20.291Z,11.53
2017-12-25T15:10:48.498Z,12.03
2017-12-25T15:13:15.938Z,11.67
2017-12-25T15:15:43.374Z,12.23
2017-12-25T15:18:10.814Z,12.17
2017-12-25T15:20:39.024Z,12.90
2017-12-25T15:23:06.466Z,11.73
2017-12-25T15:25:34.666Z,12.10
2017-12-25T15:28:02.103Z,11.43
2017-12-25T15:30:29.538Z,13.57
2017-12-25T15:32:57.740Z,11.03
2017-12-25T15:35:25.174Z,11.20
2017-12-25T15:37:53.379Z,11.80
2017-12-25T15:40:20.815Z,10.90
2017-12-25T15:42:48.247Z,10.80
2017-12-25T15:45:15.686Z,10.73
2017-12-25T15:47:43.113Z,9.43
2017-12-25T15:50:10.556Z,10.50
2017-12-25T15:52:37.998Z,10.80
2017-12-25T15:55:05.430Z,9.93
2017-12-25T15:57:33.639Z,10.53
2017-12-25T16:00:01.074Z,10.80
2017-12-25T16:02:29.279Z,9.93
2017-12-25T16:04:56.714Z,16.13
2017-12-25T16:07:24.149Z,10.73
2017-12-25T16:09:52.463Z,12.73
2017-12-25T16:12:19.889Z,10.30
2017-12-25T16:14:48.091Z,15.97
2017-12-25T16:17:15.539Z,13.77
2017-12-25T16:19:42.975Z,10.50
2017-12-25T16:22:11.178Z,10.47
2017-12-25T16:24:38.614Z,12.67
2017-12-25T16:27:06.052Z,12.30
2017-12-25T16:29:34.254Z,11.73
2017-12-25T16:32:01.701Z,15.87
2017-12-25T16:34:29.178Z,16.20
2017-12-25T16:36:56.606Z,14.23
2017-12-25T16:39:24.810Z,11.83
2017-12-25T16:41:52.254Z,18.47
2017-12-25T16:44:19.691Z,19.47
2017-12-25T16:46:47.943Z,18.80
2017-12-25T16:49:15.455Z,13.47
2017-12-25T16:51:42.899Z,14.93
2017-12-25T16:54:10.358Z,13.23
2017-12-25T16:56:38.542Z,13.17
2017-12-25T16:59:05.978Z,14.63
2017-12-25T17:01:33.414Z,13.07
2017-12-25T17:04:01.627Z,12.93
2017-12-25T17:06:29.083Z,16.00
2017-12-25T17:08:56.511Z,16.07
2017-12-25T17:11:24.754Z,13.90
2017-12-25T17:13:52.199Z,15.40
2017-12-25T17:16:19.635Z,14.80
2017-12-25T17:18:47.070Z,14.77
2017-12-25T17:21:14.504Z,14.73
2017-12-25T17:23:42.710Z,14.43
2017-12-25T17:26:10.147Z,12.80
2017-12-25T17:28:37.581Z,11.53
2017-12-25T17:31:05.020Z,12.30
2017-12-25T17:33:32.466Z,15.43
2017-12-25T17:36:00.673Z,17.53
2017-12-25T17:38:28.879Z,19.47
2017-12-25T17:40:56.314Z,17.77
2017-12-25T17:43:24.559Z,16.97
2017-12-25T17:45:53.526Z,19.83
2017-12-25T17:48:20.966Z,18.23
2017-12-25T17:50:48.407Z,19.50
2017-12-25T17:53:15.842Z,18.87
2017-12-25T17:55:44.049Z,21.50
2017-12-25T17:58:11.486Z,19.90
2017-12-25T18:00:38.986Z,16.03
2017-12-25T18:03:06.854Z,16.60
2017-12-25T18:05:34.292Z,14.07
2017-12-25T18:08:01.767Z,13.83
2017-12-25T18:10:29.219Z,14.47
2017-12-25T18:12:56.655Z,12.70
2017-12-25T18:15:24.146Z,12.73
2017-12-25T18:17:51.591Z,12.90
2017-12-25T18:20:19.026Z,13.20
2017-12-25T18:22:46.464Z,13.57
2017-12-25T18:25:13.958Z,15.03
2017-12-25T18:27:41.650Z,12.80
2017-12-25T18:30:10.636Z,12.73
2017-12-25T18:32:38.068Z,14.40
2017-12-25T18:35:05.528Z,13.70
2017-12-25T18:37:32.966Z,16.03
2017-12-25T18:40:00.439Z,19.63
2017-12-25T18:42:28.720Z,20.67
2017-12-25T18:44:56.175Z,16.20
2017-12-25T18:47:23.632Z,15.83
2017-12-25T18:49:51.084Z,16.90
2017-12-25T18:52:18.526Z,18.80
2017-12-25T18:54:45.978Z,18.17
2017-12-25T18:57:13.454Z,19.63
2017-12-25T18:59:40.914Z,18.87
2017-12-25T19:02:08.343Z,17.47
2017-12-25T19:04:35.784Z,19.97
2017-12-25T19:07:03.218Z,18.70
2017-12-25T19:09:31.430Z,18.60
2017-12-25T19:11:58.862Z,14.83
2017-12-25T19:14:27.121Z,12.67
2017-12-25T19:16:55.403Z,13.80
2017-12-25T19:19:24.354Z,11.70
2017-12-25T19:21:51.866Z,13.47
2017-12-25T19:24:19.375Z,10.97
2017-12-25T19:26:46.878Z,11.23
2017-12-25T19:29:14.358Z,12.47
2017-12-25T19:31:41.838Z,13.73
2017-12-25T19:34:09.258Z,14.00
2017-12-25T19:36:36.725Z,17.37
2017-12-25T19:39:04.903Z,15.00
2017-12-25T19:41:32.350Z,14.87
2017-12-25T19:43:59.830Z,15.23
2017-12-25T19:46:27.262Z,11.70
2017-12-25T19:48:54.698Z,12.80
2017-12-25T19:51:22.903Z,10.10
2017-12-25T19:53:50.390Z,12.63
2017-12-25T19:56:17.870Z,13.87
2017-12-25T19:58:45.289Z,13.60
2017-12-25T20:01:12.780Z,14.60
2017-12-25T20:03:40.295Z,12.37
2017-12-25T20:06:07.731Z,11.43
2017-12-25T20:08:35.166Z,12.33
2017-12-25T20:11:03.376Z,13.00
2017-12-25T20:13:30.871Z,12.77
2017-12-25T20:15:58.353Z,12.47
2017-12-25T20:18:25.775Z,13.73
2017-12-25T20:20:53.266Z,13.27
2017-12-25T20:23:20.737Z,12.67
2017-12-25T20:25:48.930Z,12.80
2017-12-25T20:28:16.366Z,11.80
2017-12-25T20:30:44.627Z,11.80
2017-12-25T20:33:12.184Z,12.93
2017-12-25T20:35:39.662Z,11.73
2017-12-25T20:38:07.935Z,9.97
2017-12-25T20:40:36.118Z,11.43
2017-12-25T20:43:03.683Z,11.20
2017-12-25T20:45:31.217Z,10.80
2017-12-25T20:47:59.466Z,13.03
2017-12-25T20:50:26.933Z,10.50
2017-12-25T20:52:55.121Z,12.10
2017-12-25T20:55:22.599Z,12.57
2017-12-25T20:57:50.866Z,13.37
2017-12-25T21:00:19.233Z,14.40
2017-12-25T21:02:46.790Z,18.80
2017-12-25T21:05:14.353Z,22.80
2017-12-25T21:07:41.862Z,19.83
2017-12-25T21:10:09.322Z,19.40
2017-12-25T21:12:36.826Z,17.83
2017-12-25T21:15:05.047Z,16.40
2017-12-25T21:17:32.537Z,14.40
2017-12-25T21:20:00.016Z,18.97
2017-12-25T21:22:28.293Z,14.67
2017-12-25T21:24:56.486Z,12.20
2017-12-25T21:27:23.976Z,18.50
2017-12-25T21:29:51.454Z,13.03
2017-12-25T21:32:18.965Z,18.57
2017-12-25T21:34:46.440Z,17.47
2017-12-25T21:37:13.918Z,15.20
2017-12-25T21:39:41.394Z,17.20
2017-12-25T21:42:08.866Z,17.43
2017-12-25T21:44:36.350Z,14.83
2017-12-25T21:47:03.826Z,15.80
2017-12-25T21:49:31.270Z,18.50
2017-12-25T21:51:58.750Z,13.70
2017-12-25T21:54:26.215Z,14.50
2017-12-25T21:56:58.119Z,14.03
2017-12-25T21:59:26.370Z,15.07
2017-12-25T22:01:53.853Z,15.03
2017-12-25T22:04:22.092Z,15.27
2017-12-25T22:06:49.570Z,14.10
2017-12-25T22:09:16.996Z,16.50
2017-12-25T22:11:44.466Z,13.57
2017-12-25T22:14:11.908Z,13.17
2017-12-25T22:16:40.164Z,14.87
2017-12-25T22:19:07.632Z,15.23
2017-12-25T22:21:35.127Z,13.63
2017-12-25T22:24:02.555Z,17.50
2017-12-25T22:26:30.088Z,19.43
2017-12-25T22:28:57.566Z,17.87
2017-12-25T22:31:25.039Z,17.90
2017-12-25T22:33:52.510Z,18.43
2017-12-25T22:36:19.993Z,20.07
2017-12-25T22:38:48.233Z,18.97
2017-12-25T22:41:15.713Z,17.73
2017-12-25T22:43:43.958Z,18.77
2017-12-25T22:46:11.428Z,19.47
2017-12-25T22:48:38.907Z,18.97
2017-12-25T22:51:07.183Z,17.63
2017-12-25T22:53:35.421Z,15.63
2017-12-25T22:56:02.947Z,13.60
2017-12-25T22:58:30.425Z,12.67
2017-12-25T23:00:57.905Z,13.83
2017-12-25T23:03:25.377Z,15.33
2017-12-25T23:05:52.836Z,15.07
2017-12-25T23:08:21.086Z,17.20
2017-12-25T23:10:49.326Z,16.40
2017-12-25T23:13:16.838Z,14.10
2017-12-25T23:15:44.303Z,16.80
2017-12-25T23:18:12.546Z,17.73
2017-12-25T23:20:40.026Z,16.73
2017-12-25T23:23:07.495Z,14.07
2017-12-25T23:25:35.733Z,14.70
2017-12-25T23:28:03.172Z,18.63
2017-12-25T23:30:30.656Z,18.73
2017-12-25T23:32:58.126Z,22.77
2017-12-25T23:35:25.558Z,20.90
2017-12-25T23:37:53.048Z,20.27
2017-12-25T23:40:21.332Z,20.10
2017-12-25T23:42:49.568Z,19.33
2017-12-25T23:45:17.050Z,16.50
2017-12-25T23:47:44.530Z,16.47
2017-12-25T23:50:12.758Z,14.47
2017-12-25T23:52:40.230Z,22.67
2017-12-25T23:55:07.649Z,18.27
2017-12-25T23:57:35.141Z,17.27
